LIBP Airport Information

Runway Information
Runway 04 Length 7933 ft width 148 ft
Elevation 46 ft Threshold 344 ft Heading 38
Runway 22 Length 7933 ft Width 148 ft
Elevation 27 ft Threshold 617 ft Heading 218
Airport Frequencies
Type APP Name APP Frequency 120.05 MHZ
Type TWR Name TWR Frequency 118.45 MHZ
Airport Navaids
Type VOR-DME Name Pescara Frequency 115900 KHZ
Airport Weather Information & NOTAM
ADDS - METARS form results

(0335 UTC 18 November 2018)
Data provider http://aviationweather.gov/metar/data/
 
METAR text: LIBP 180317Z AUTO 19005KT 5000 -RA FEW006/// OVC024/// 08/08 Q1018 RERA
Conditions at: LIBP (PESCARA , IT) observed 0317 UTC 18 November 2018
Temperature: 8.0°C (46°F)
Dewpoint: 8.0°C (46°F) [RH = 100%]
Pressure (altimeter): 30.06 inches Hg (1018.0 mb)
Winds: from the S (190 degrees) at 6 MPH (5 knots; 2.6 m/s)
Visibility: 3 miles ( 5 km)
Ceiling: 2400 feet AGL
Clouds: few clouds at 600 feet AGL
overcast cloud deck at 2400 feet AGL
Weather: -RA  (light rain)

METAR text: LIBP 180250Z AUTO 20006KT 3800 RA OVC037/// 08/08 Q1018
Conditions at: LIBP (PESCARA , IT) observed 0250 UTC 18 November 2018
Temperature: 8.0°C (46°F)
Dewpoint: 8.0°C (46°F) [RH = 100%]
Pressure (altimeter): 30.06 inches Hg (1018.0 mb)
Winds: from the SSW (200 degrees) at 7 MPH (6 knots; 3.1 m/s)
Visibility: 2.36 miles (3.80 km)
Ceiling: 3700 feet AGL
Clouds: overcast cloud deck at 3700 feet AGL
Weather: RA  (moderate rain)

Forecast for: LIBP (PESCARA , IT)
Text: TAF LIBP 172300Z 1800/1824 VRB05KT 9999 SCT030
Forecast period: 0000 to 0600 UTC 18 November 2018
Forecast type: FROM: standard forecast or significant change
Winds: variable direction winds at 6 MPH (5 knots; 2.6 m/s)
Visibility: 6 or more miles 10+ km)
Ceiling: at least 12,000 feet AGL
Clouds: scattered clouds at 3000 feet AGL
Weather: no significant weather forecast for this period
Text: BECMG 1806/1808 32010KT
Forecast period: 0600 UTC 18 November 2018 to 0000 UTC 19 November 2018
Forecast type: BECOMING: Conditions expected to become as follows by 0800 UTC 18 November 2018
Winds: from the NW (320 degrees) at 12 MPH (10 knots; 5.1 m/s)
Visibility: 6 or more miles 10+ km)
Ceiling: at least 12,000 feet AGL
Clouds: scattered clouds at 3000 feet AGL
Weather: no significant weather forecast for this period
Text: TEMPO 1800/1812 SHRA
Forecast period: 0000 to 1200 UTC 18 November 2018
Forecast type: TEMPORARY: The following changes expected for less than half the time period
Visibility: missing
Ceiling: unknown
Clouds: missing
Weather: SHRA  (rain showers)